Time;durP1;ratioP1;P1;durP2;ratioP2;P2;SDS_P1;SDS_P2;PMS_P1;PMS_P2;Temp;Humidity;BMP_temperature;BMP_pressure;BME280_temperature;BME280_humidity;BME280_pressure;Samples;Min_cycle;Max_cycle;Signal;HPM_P1;HPM_P2
2021/07/15 00:00:53;;;;;;;21.92;12.50;;;;;;;27.99;48.53;99240.46;365465;110;1963013;-70
2021/07/15 00:02:06;;;;;;;18.34;12.18;;;;;;;28.12;48.48;99231.09;393777;104;1985993;-71
2021/07/15 00:03:16;;;;;;;18.72;11.37;;;;;;;27.99;48.65;99238.48;375180;107;1964878;-72
2021/07/15 00:04:29;;;;;;;19.47;12.76;;;;;;;28.13;48.56;99238.30;391580;104;1987047;-71
2021/07/15 00:05:37;;;;;;;18.98;11.91;;;;;;;28.03;48.41;99233.92;366939;105;2872015;-72
2021/07/15 00:07:12;;;;;;;17.66;10.95;;;;;;;28.10;48.53;99229.80;411129;99;1985951;-73
2021/07/15 00:08:27;;;;;;;15.12;10.47;;;;;;;28.09;48.50;99234.55;393041;103;1985992;-72
2021/07/15 00:09:33;;;;;;;14.82;10.10;;;;;;;27.95;48.58;99234.77;322039;105;2290857;-71
2021/07/15 00:10:57;;;;;;;16.30;9.86;;;;;;;28.03;48.76;99225.59;366363;101;2704975;-72
2021/07/15 00:12:07;;;;;;;14.78;10.16;;;;;;;27.90;48.73;99223.84;388076;103;1963001;-72
2021/07/15 00:13:20;;;;;;;15.48;10.22;;;;;;;28.02;48.90;99226.75;352721;103;2752024;-72
2021/07/15 00:14:26;;;;;;;16.83;10.22;;;;;;;27.91;48.95;99228.23;363153;105;1961951;-73
2021/07/15 00:15:53;;;;;;;16.16;10.51;;;;;;;27.91;48.85;99231.02;369179;108;1962933;-71
2021/07/15 00:17:08;;;;;;;17.37;10.64;;;;;;;28.02;48.92;99226.75;344025;101;2378980;-73
2021/07/15 00:18:15;;;;;;;14.24;9.18;;;;;;;27.91;48.90;99231.02;383687;104;1962025;-72
2021/07/15 00:19:23;;;;;;;16.11;9.80;;;;;;;27.88;48.89;99234.45;382679;104;1962077;-70
2021/07/15 00:20:41;;;;;;;12.87;9.63;;;;;;;27.97;49.02;99234.42;391701;104;1986004;-72
2021/07/15 00:21:46;;;;;;;15.90;9.79;;;;;;;27.84;49.03;99231.55;374871;107;1962013;-72
2021/07/15 00:22:52;;;;;;;16.00;9.84;;;;;;;27.81;49.16;99234.14;372847;107;1963028;-72
2021/07/15 00:23:57;;;;;;;17.86;9.28;;;;;;;27.77;49.27;99227.61;374137;107;1962009;-72
2021/07/15 00:25:12;;;;;;;11.52;8.81;;;;;;;27.87;49.25;99227.29;388276;104;1987026;-72
2021/07/15 00:26:23;;;;;;;13.12;9.28;;;;;;;27.73;49.33;99227.47;366799;108;1961869;-72
2021/07/15 00:27:37;;;;;;;16.01;9.64;;;;;;;27.81;49.63;99232.20;393925;101;2963047;-74
2021/07/15 00:28:43;;;;;;;13.96;9.55;;;;;;;27.68;49.57;99238.75;380967;104;1962965;-73
2021/07/15 00:30:08;;;;;;;16.29;9.79;;;;;;;27.69;49.64;99234.81;378306;103;1960884;-74
2021/07/15 00:31:14;;;;;;;13.28;9.79;;;;;;;27.66;49.64;99235.48;336445;105;2707894;-73
2021/07/15 00:32:20;;;;;;;14.78;9.99;;;;;;;27.66;49.88;99229.13;374101;105;1960811;-74
2021/07/15 00:33:28;;;;;;;13.79;9.83;;;;;;;27.63;49.75;99230.59;375281;105;1960815;-73
2021/07/15 00:34:40;;;;;;;12.84;9.18;;;;;;;27.72;49.98;99236.92;326911;108;2612072;-74
2021/07/15 00:35:52;;;;;;;17.33;10.80;;;;;;;27.68;49.95;99226.80;390810;104;2070776;-73
2021/07/15 00:37:15;;;;;;;19.67;10.34;;;;;;;27.55;50.07;99235.02;358859;106;2848902;-72
2021/07/15 00:38:28;;;;;;;16.71;9.58;;;;;;;27.63;50.39;99225.86;385830;103;1985771;-71
2021/07/15 00:39:33;;;;;;;13.19;9.31;;;;;;;27.50;50.19;99228.83;367162;109;1961885;-71
2021/07/15 00:40:58;;;;;;;17.48;10.51;;;;;;;27.49;50.40;99225.22;362389;109;1960832;-71
2021/07/15 00:42:10;;;;;;;13.93;9.49;;;;;;;27.60;50.31;99225.68;395429;104;1960869;-71
2021/07/15 00:43:15;;;;;;;12.17;9.11;;;;;;;27.44;50.26;99219.84;376673;106;1967627;-72
2021/07/15 00:44:27;;;;;;;17.79;9.42;;;;;;;27.63;50.41;99225.86;394649;104;1984843;-72
2021/07/15 00:45:32;;;;;;;15.86;9.56;;;;;;;27.52;50.32;99223.74;376397;107;1960723;-72
2021/07/15 00:46:38;;;;;;;13.39;9.21;;;;;;;27.49;50.45;99230.77;377507;107;1960868;-72
2021/07/15 00:47:51;;;;;;;13.67;10.25;;;;;;;27.58;50.66;99231.58;395459;104;1984746;-72
2021/07/15 00:48:56;;;;;;;14.26;9.54;;;;;;;27.48;50.43;99229.14;376360;106;1960908;-73
2021/07/15 00:50:05;;;;;;;14.43;9.92;;;;;;;27.49;50.43;99227.18;375137;106;1960877;-72
2021/07/15 00:51:20;;;;;;;17.57;9.68;;;;;;;27.56;50.66;99219.98;338640;104;2541948;-73
2021/07/15 00:52:26;;;;;;;14.45;10.00;;;;;;;27.37;50.50;99225.91;374833;107;1962017;-72
2021/07/15 00:53:39;;;;;;;13.64;9.88;;;;;;;27.54;50.57;99224.23;392614;103;2070883;-72
2021/07/15 00:54:46;;;;;;;17.00;9.41;;;;;;;27.38;50.64;99221.97;336492;106;2850912;-70
2021/07/15 00:56:11;;;;;;;15.98;9.60;;;;;;;27.34;50.70;99220.20;368948;107;1960785;-72
2021/07/15 00:57:25;;;;;;;12.23;9.98;;;;;;;27.45;50.89;99226.23;394943;104;1993760;-72
2021/07/15 00:58:31;;;;;;;11.74;9.01;;;;;;;27.32;50.91;99226.07;376669;106;1960800;-72
2021/07/15 00:59:43;;;;;;;13.59;9.56;;;;;;;27.44;50.87;99221.80;395141;104;1960679;-72
2021/07/15 01:00:50;;;;;;;12.66;9.26;;;;;;;27.31;50.78;99223.61;374259;105;1968771;-71
2021/07/15 01:02:13;;;;;;;13.56;9.83;;;;;;;27.28;50.90;99224.27;350115;106;2863864;-71
2021/07/15 01:03:26;;;;;;;13.66;9.73;;;;;;;27.34;51.19;99228.53;391930;103;1985946;-73
2021/07/15 01:04:32;;;;;;;13.73;9.98;;;;;;;27.20;51.08;99228.68;377485;106;1960753;-71
2021/07/15 01:05:48;;;;;;;15.94;10.04;;;;;;;27.27;51.48;99222.66;398082;103;1965075;-72
2021/07/15 01:06:55;;;;;;;13.42;9.56;;;;;;;27.14;51.53;99227.20;379012;105;1962120;-71
2021/07/15 01:08:19;;;;;;;13.48;9.77;;;;;;;27.10;51.25;99224.27;380671;105;1969591;-72
2021/07/15 01:09:25;;;;;;;13.52;9.98;;;;;;;27.07;51.41;99224.93;372521;107;1962937;-72
2021/07/15 01:10:41;;;;;;;15.51;10.22;;;;;;;27.16;51.54;99228.50;379533;103;3074987;-72
2021/07/15 01:11:57;;;;;;;13.93;8.97;;;;;;;27.15;51.75;99229.66;324508;104;2473905;-72
2021/07/15 01:13:07;;;;;;;15.23;9.52;;;;;;;27.03;51.58;99231.45;373899;107;1961978;-71
2021/07/15 01:14:27;;;;;;;13.44;9.64;;;;;;;27.14;51.75;99230.78;357671;104;2163877;-71
2021/07/15 01:15:36;;;;;;;15.72;9.82;;;;;;;27.05;51.63;99238.30;367603;108;1962018;-72
2021/07/15 01:17:04;;;;;;;17.98;10.05;;;;;;;27.05;51.60;99238.30;368805;109;1964855;-71
2021/07/15 01:18:20;;;;;;;13.26;9.34;;;;;;;27.16;51.71;99238.78;325798;104;2466986;-71
2021/07/15 01:19:54;;;;;;;14.81;9.79;;;;;;;27.03;51.66;99237.80;375832;106;1961931;-71
2021/07/15 01:21:40;;;;;;;13.51;10.33;;;;;;;27.09;51.80;99243.99;385329;106;1986977;-72
2021/07/15 01:23:01;;;;;;;14.86;8.98;;;;;;;26.96;51.81;99245.78;367230;109;1961973;-72
2021/07/15 01:24:39;;;;;;;14.85;9.99;;;;;;;26.89;51.94;99239.92;360472;108;1961919;-72
2021/07/15 01:26:21;;;;;;;14.09;10.09;;;;;;;27.02;52.04;99238.95;385827;106;1985896;-71
2021/07/15 01:27:49;;;;;;;15.39;10.00;;;;;;;26.92;51.90;99234.53;358632;110;1961974;-72
2021/07/15 01:29:14;;;;;;;18.03;10.29;;;;;;;27.03;52.03;99235.03;352600;104;2201097;-72
2021/07/15 01:30:35;;;;;;;12.84;9.29;;;;;;;26.90;51.90;99234.04;371084;107;1961949;-72
2021/07/15 01:31:51;;;;;;;12.39;9.06;;;;;;;26.99;52.15;99234.03;386699;106;1985989;-72
2021/07/15 01:33:18;;;;;;;14.34;10.26;;;;;;;26.86;52.00;99243.32;367778;109;1961903;-73
2021/07/15 01:34:44;;;;;;;13.09;9.86;;;;;;;26.84;51.99;99235.34;365880;109;1962867;-70
2021/07/15 01:36:00;;;;;;;13.88;10.14;;;;;;;26.93;52.03;99236.16;396163;104;1987988;-71
2021/07/15 01:37:12;;;;;;;16.76;10.03;;;;;;;26.90;52.03;99231.27;396539;104;1985987;-69
2021/07/15 01:38:45;;;;;;;14.63;10.06;;;;;;;26.80;52.15;99239.89;332111;105;2870812;-71
2021/07/15 01:39:54;;;;;;;13.43;9.84;;;;;;;26.80;52.12;99239.08;337345;105;2893040;-72
2021/07/15 01:41:24;;;;;;;14.58;8.37;;;;;;;26.84;52.01;99235.34;375677;107;1960912;-71
2021/07/15 01:42:38;;;;;;;14.20;8.97;;;;;;;26.96;52.04;99229.98;395808;103;1985944;-71
2021/07/15 01:43:47;;;;;;;15.20;10.41;;;;;;;26.87;51.83;99236.66;368648;105;1960870;-72
2021/07/15 01:44:55;;;;;;;14.33;9.89;;;;;;;26.84;51.88;99232.58;374635;106;1960857;-71
2021/07/15 01:46:08;;;;;;;13.49;9.64;;;;;;;26.95;51.86;99233.88;401669;101;1989480;-72
2021/07/15 01:47:15;;;;;;;16.27;9.86;;;;;;;26.85;51.88;99234.20;382548;105;1963008;-71
2021/07/15 01:48:21;;;;;;;15.44;10.22;;;;;;;26.86;51.89;99235.00;323878;103;2319996;-72
2021/07/15 01:49:28;;;;;;;15.44;9.51;;;;;;;26.85;51.84;99244.47;377276;105;1961878;-71
2021/07/15 01:50:36;;;;;;;16.61;9.78;;;;;;;26.84;51.95;99245.63;376135;106;1964094;-72
2021/07/15 01:51:50;;;;;;;14.18;9.68;;;;;;;26.95;52.01;99239.42;393209;104;1986059;-72
2021/07/15 01:52:57;;;;;;;13.82;9.69;;;;;;;26.81;52.05;99237.96;373214;107;1961877;-70
2021/07/15 01:54:10;;;;;;;15.05;10.87;;;;;;;26.88;52.18;99235.50;389588;106;1965009;-72
2021/07/15 01:55:15;;;;;;;13.22;10.09;;;;;;;26.75;52.17;99240.05;369557;107;1962078;-72
2021/07/15 01:56:41;;;;;;;12.84;9.55;;;;;;;26.75;52.18;99240.05;359347;108;1962154;-72
2021/07/15 01:57:49;;;;;;;15.39;9.69;;;;;;;26.80;52.24;99241.86;368082;108;1962030;-72
2021/07/15 01:59:02;;;;;;;13.51;9.54;;;;;;;26.90;52.20;99245.13;391641;104;1986901;-72
2021/07/15 02:00:08;;;;;;;14.23;10.26;;;;;;;26.81;52.16;99237.96;367660;107;1961893;-71
2021/07/15 02:01:23;;;;;;;13.64;10.53;;;;;;;26.93;52.13;99244.47;388503;104;2073631;-71
2021/07/15 02:02:29;;;;;;;12.68;9.87;;;;;;;26.84;52.15;99245.63;374616;107;1962036;-71
2021/07/15 02:03:56;;;;;;;15.11;9.79;;;;;;;26.86;52.07;99248.86;330236;107;2190390;-72
2021/07/15 02:05:04;;;;;;;12.23;9.78;;;;;;;26.88;51.97;99246.59;370520;107;1960957;-71
2021/07/15 02:06:12;;;;;;;15.09;9.88;;;;;;;26.85;52.01;99250.82;368636;108;1962002;-72
2021/07/15 02:07:27;;;;;;;13.63;10.05;;;;;;;26.96;51.99;99254.94;338568;104;2534003;-71
2021/07/15 02:08:35;;;;;;;14.85;9.86;;;;;;;26.85;52.02;99247.24;376225;106;1963006;-72
2021/07/15 02:09:49;;;;;;;14.32;10.15;;;;;;;26.94;51.96;99250.86;393417;104;1987025;-72
2021/07/15 02:10:56;;;;;;;12.71;10.11;;;;;;;26.82;51.86;99250.67;361353;109;1964830;-70
2021/07/15 02:12:20;;;;;;;14.72;9.75;;;;;;;26.82;52.06;99243.16;369958;108;1963989;-71
2021/07/15 02:13:33;;;;;;;13.37;9.75;;;;;;;26.91;51.95;99243.16;343921;104;2571037;-71
2021/07/15 02:14:38;;;;;;;14.33;9.84;;;;;;;26.80;51.88;99239.08;370497;107;1968986;-72
2021/07/15 02:15:52;;;;;;;15.03;10.38;;;;;;;26.90;51.94;99238.77;389980;104;2072061;-71
2021/07/15 02:17:01;;;;;;;15.88;10.20;;;;;;;26.80;51.92;99248.20;350806;106;2857028;-70
2021/07/15 02:18:26;;;;;;;14.04;9.88;;;;;;;26.78;51.85;99242.20;298961;107;2478012;-72
2021/07/15 02:19:33;;;;;;;13.53;9.83;;;;;;;26.78;51.99;99242.20;374944;107;1961950;-72
2021/07/15 02:20:49;;;;;;;14.41;9.80;;;;;;;26.92;51.71;99242.04;351647;104;2756925;-72
2021/07/15 02:21:56;;;;;;;16.86;10.51;;;;;;;26.80;51.73;99248.20;373850;107;1962015;-72
2021/07/15 02:23:10;;;;;;;15.59;9.63;;;;;;;26.91;51.72;99244.00;394166;103;1986121;-73
2021/07/15 02:24:20;;;;;;;18.47;11.48;;;;;;;26.81;51.63;99257.36;373638;106;1963910;-73
2021/07/15 02:25:46;;;;;;;17.87;10.26;;;;;;;26.83;51.63;99243.97;343622;108;2023772;-72
2021/07/15 02:27:02;;;;;;;15.08;9.67;;;;;;;26.95;51.63;99247.73;325763;104;2457910;-72
2021/07/15 02:28:10;;;;;;;15.64;9.43;;;;;;;26.86;51.57;99252.47;376336;106;1961035;-73
2021/07/15 02:29:16;;;;;;;14.46;9.58;;;;;;;26.89;51.56;99248.23;375422;106;1961996;-73
2021/07/15 02:30:28;;;;;;;14.21;9.58;;;;;;;27.03;51.47;99248.89;394106;104;2071962;-72
2021/07/15 02:31:37;;;;;;;18.12;9.92;;;;;;;26.94;51.36;99245.31;372120;107;1968950;-72
2021/07/15 02:32:56;;;;;;;15.21;9.51;;;;;;;27.08;51.27;99245.95;397553;104;1985917;-73
2021/07/15 02:34:06;;;;;;;16.49;9.98;;;;;;;26.98;51.22;99249.86;315514;105;2381970;-72
2021/07/15 02:35:19;;;;;;;14.57;9.13;;;;;;;27.15;51.05;99249.06;377737;106;1987053;-73
2021/07/15 02:36:28;;;;;;;17.69;10.44;;;;;;;27.04;51.05;99244.96;369143;109;1960903;-74
2021/07/15 02:37:55;;;;;;;18.16;10.43;;;;;;;27.02;51.10;99249.20;366756;109;1961856;-71
2021/07/15 02:40:22;;;;;;;15.77;10.22;;;;;;;27.13;51.03;99251.34;388124;104;1987026;-73
2021/07/15 02:41:46;;;;;;;15.66;9.91;;;;;;;27.02;51.04;99254.75;327259;109;2180939;-71
2021/07/15 02:42:51;;;;;;;14.06;9.82;;;;;;;27.00;50.99;99257.86;330406;111;2080977;-72
2021/07/15 02:44:03;;;;;;;11.63;9.65;;;;;;;27.08;51.07;99259.81;393069;104;1988935;-73
2021/07/15 02:45:11;;;;;;;17.04;10.13;;;;;;;26.96;51.10;99259.63;373811;106;1962080;-70
2021/07/15 02:46:16;;;;;;;14.64;10.05;;;;;;;26.93;51.37;99258.33;375971;106;1962046;-72
2021/07/15 02:47:29;;;;;;;14.00;10.72;;;;;;;27.06;51.21;99252.97;388824;104;2073983;-73
2021/07/15 02:48:34;;;;;;;13.91;9.94;;;;;;;26.94;51.14;99251.66;351859;106;1999018;-73
2021/07/15 02:49:46;;;;;;;16.68;10.27;;;;;;;27.03;51.15;99251.66;388944;104;2071006;-73
2021/07/15 02:50:52;;;;;;;23.77;10.34;;;;;;;26.91;51.23;99251.48;374985;106;1969927;-73
2021/07/15 02:52:16;;;;;;;14.99;9.66;;;;;;;26.89;51.31;99245.47;374256;106;1961922;-73
2021/07/15 02:53:22;;;;;;;13.61;10.34;;;;;;;26.88;51.45;99252.94;376442;106;1961882;-72
2021/07/15 02:54:36;;;;;;;14.86;10.45;;;;;;;26.98;51.24;99255.40;388887;104;2071923;-74
2021/07/15 02:55:45;;;;;;;15.07;9.96;;;;;;;26.87;51.32;99256.05;362055;107;2846007;-73
2021/07/15 02:57:14;;;;;;;15.06;10.29;;;;;;;26.96;51.32;99256.86;353338;104;2714908;-73
2021/07/15 02:58:30;;;;;;;14.36;9.50;;;;;;;26.93;51.34;99258.33;393538;104;1986961;-71
2021/07/15 03:00:10;;;;;;;14.75;10.16;;;;;;;26.81;51.43;99258.17;328743;106;2638046;-72
2021/07/15 03:01:25;;;;;;;14.22;9.93;;;;;;;26.87;51.50;99258.83;402209;101;1985776;-73
2021/07/15 03:02:49;;;;;;;17.17;11.07;;;;;;;26.75;51.57;99253.91;376712;105;1962997;-73
2021/07/15 03:04:31;;;;;;;13.17;10.35;;;;;;;26.73;51.60;99256.20;382472;105;1962036;-72
2021/07/15 03:05:53;;;;;;;17.77;10.87;;;;;;;26.82;51.73;99247.89;394510;104;1986011;-72
2021/07/15 03:07:02;;;;;;;13.72;9.73;;;;;;;26.69;51.61;99258.78;374705;106;1961088;-73
2021/07/15 03:08:11;;;;;;;13.14;9.46;;;;;;;26.68;51.70;99257.17;332064;106;2170973;-72
2021/07/15 03:09:29;;;;;;;15.27;9.62;;;;;;;26.79;51.88;99259.63;350961;103;2215995;-74
2021/07/15 03:10:35;;;;;;;;;;;;;;;26.67;51.92;99258.28;377526;105;1961853;-75
2021/07/15 03:11:57;;;;;;;14.16;9.44;;;;;;;26.70;51.64;99254.89;374605;107;1961072;-74
2021/07/15 03:13:10;;;;;;;12.68;9.86;;;;;;;26.82;51.64;99251.48;392647;104;1985980;-74
2021/07/15 03:14:17;;;;;;;15.09;9.62;;;;;;;26.71;51.71;99253.75;373868;107;1962923;-73
2021/07/15 03:15:22;;;;;;;15.78;10.73;;;;;;;26.72;51.71;99254.55;368491;107;1962026;-75
2021/07/15 03:16:39;;;;;;;12.98;9.91;;;;;;;26.83;51.65;99257.83;391751;104;2073784;-75
2021/07/15 03:17:48;;;;;;;14.51;9.71;;;;;;;26.71;51.77;99253.75;374121;106;1962057;-74
2021/07/15 03:19:03;;;;;;;14.91;10.63;;;;;;;26.84;51.76;99253.94;384383;106;1985964;-74
2021/07/15 03:20:15;;;;;;;13.33;8.88;;;;;;;26.75;51.74;99256.67;365311;109;1961922;-73
2021/07/15 03:21:42;;;;;;;11.55;9.25;;;;;;;26.78;51.72;99263.52;349525;109;1965082;-73
2021/07/15 03:22:58;;;;;;;14.79;10.03;;;;;;;26.90;51.72;99253.44;392250;103;1985757;-74
2021/07/15 03:24:06;;;;;;;13.00;9.68;;;;;;;26.79;51.54;99251.32;358220;105;2857027;-73
2021/07/15 03:25:14;;;;;;;12.79;9.42;;;;;;;26.80;51.54;99253.75;371261;105;1962044;-73
2021/07/15 03:26:26;;;;;;;14.64;9.56;;;;;;;26.94;51.46;99257.20;381201;104;1986054;-73
2021/07/15 03:27:35;;;;;;;14.67;10.14;;;;;;;26.85;51.48;99252.78;372221;105;1962040;-74
2021/07/15 03:28:43;;;;;;;13.88;9.28;;;;;;;26.88;51.43;99254.91;379975;105;1961931;-74
2021/07/15 03:30:01;;;;;;;14.23;9.35;;;;;;;27.00;51.48;99251.50;391009;104;1986012;-73
2021/07/15 03:31:09;;;;;;;12.29;9.41;;;;;;;26.90;51.42;99263.72;370114;108;1961000;-73
2021/07/15 03:32:25;;;;;;;16.16;10.71;;;;;;;27.01;51.48;99253.94;394532;104;1985994;-73
2021/07/15 03:33:32;;;;;;;13.86;9.79;;;;;;;26.93;51.46;99261.09;372559;107;1962998;-73
2021/07/15 03:34:55;;;;;;;17.53;9.93;;;;;;;26.94;51.45;99256.40;360558;106;1962081;-73
2021/07/15 03:36:04;;;;;;;13.76;9.30;;;;;;;26.95;51.32;99258.83;353119;107;1962088;-74
2021/07/15 03:37:10;;;;;;;16.83;9.77;;;;;;;26.96;51.08;99263.25;369823;107;1964002;-74
2021/07/15 03:38:17;;;;;;;11.78;8.76;;;;;;;26.96;51.27;99263.25;329517;107;2869062;-73
2021/07/15 03:39:23;;;;;;;12.20;8.99;;;;;;;26.96;51.17;99263.25;370314;107;1963111;-73
2021/07/15 03:40:36;;;;;;;15.69;9.99;;;;;;;27.08;51.25;99264.55;403041;101;1987035;-73
2021/07/15 03:41:43;;;;;;;12.29;10.14;;;;;;;26.96;51.29;99263.25;382136;103;1963028;-74
2021/07/15 03:42:56;;;;;;;13.47;9.62;;;;;;;27.09;51.14;99263.40;386475;106;1986084;-74
2021/07/15 03:44:02;;;;;;;13.19;9.58;;;;;;;26.98;51.22;99266.48;367715;109;1961985;-73
2021/07/15 03:45:27;;;;;;;12.86;9.84;;;;;;;27.00;51.16;99262.59;363642;108;1961982;-75
2021/07/15 03:46:33;;;;;;;13.48;9.06;;;;;;;27.02;51.12;99266.67;362345;110;1962101;-73
2021/07/15 03:47:52;;;;;;;17.57;10.95;;;;;;;27.14;51.12;99271.55;339822;104;2595044;-74
2021/07/15 03:48:59;;;;;;;15.79;10.42;;;;;;;27.03;51.13;99267.48;376307;106;1961990;-73
2021/07/15 03:50:23;;;;;;;13.84;9.78;;;;;;;27.16;51.17;99266.51;385805;104;1986869;-73
2021/07/15 03:51:28;;;;;;;14.01;9.53;;;;;;;27.06;51.16;99264.05;362595;110;1961805;-74
2021/07/15 03:52:36;;;;;;;15.58;10.41;;;;;;;27.08;51.15;99272.87;369601;108;1963000;-73
2021/07/15 03:53:44;;;;;;;12.34;9.41;;;;;;;27.11;51.02;99270.25;368380;108;1962097;-74
2021/07/15 03:54:58;;;;;;;14.68;9.23;;;;;;;27.26;50.84;99260.67;385570;106;1987055;-73
2021/07/15 03:56:06;;;;;;;11.81;9.09;;;;;;;27.18;50.72;99270.62;360138;108;2886996;-74
2021/07/15 03:57:20;;;;;;;14.40;10.07;;;;;;;27.31;50.76;99274.38;393034;104;1988035;-73
2021/07/15 03:58:27;;;;;;;14.51;9.85;;;;;;;27.23;50.64;99275.19;371172;106;1963951;-73
2021/07/15 03:59:52;;;;;;;15.64;9.27;;;;;;;27.24;50.66;99273.23;312278;106;2541964;-73
2021/07/15 04:01:06;;;;;;;15.73;9.74;;;;;;;27.36;50.63;99267.82;371327;112;1985882;-72
2021/07/15 04:02:15;;;;;;;13.81;9.50;;;;;;;27.24;50.58;99265.72;337830;114;1962021;-73
2021/07/15 04:03:23;;;;;;;14.40;10.11;;;;;;;27.25;50.58;99274.84;348800;114;1964024;-73
2021/07/15 04:04:42;;;;;;;15.81;10.62;;;;;;;27.37;50.56;99261.15;392581;103;1986910;-73
2021/07/15 04:05:52;;;;;;;13.46;9.38;;;;;;;27.27;50.52;99256.73;327473;107;2791978;-73
2021/07/15 04:07:06;;;;;;;14.50;9.66;;;;;;;27.39;50.60;99265.23;311149;108;2474975;-73
2021/07/15 04:08:15;;;;;;;12.92;8.98;;;;;;;27.28;50.78;99266.68;361068;111;1962055;-72
2021/07/15 04:09:30;;;;;;;15.09;9.86;;;;;;;27.46;50.50;99270.27;385857;106;1988009;-73
2021/07/15 04:10:39;;;;;;;13.76;9.76;;;;;;;27.35;50.54;99267.02;292168;110;2508924;-73
2021/07/15 04:12:05;;;;;;;15.10;9.37;;;;;;;27.34;50.51;99272.91;358975;113;1960884;-74
2021/07/15 04:13:13;;;;;;;13.68;9.63;;;;;;;27.36;50.45;99267.82;355407;111;1962144;-74
2021/07/15 04:15:04;;;;;;;14.22;9.24;;;;;;;27.48;50.50;99273.53;394456;103;1987037;-73
2021/07/15 04:16:19;;;;;;;12.59;8.49;;;;;;;27.36;50.66;99271.44;372078;107;1962072;-71
2021/07/15 04:17:44;;;;;;;13.97;9.94;;;;;;;27.49;50.43;99263.24;402306;101;1986049;-73
2021/07/15 04:18:53;;;;;;;14.01;9.22;;;;;;;27.39;50.49;99264.42;328346;105;2269020;-73
2021/07/15 04:20:00;;;;;;;12.21;9.90;;;;;;;27.40;50.43;99271.59;380503;105;1962098;-73
2021/07/15 04:21:14;;;;;;;15.23;10.33;;;;;;;27.53;50.39;99269.78;388656;106;1988140;-75
2021/07/15 04:22:21;;;;;;;13.74;9.81;;;;;;;27.44;50.34;99261.45;373307;107;1962979;-73
2021/07/15 04:23:36;;;;;;;14.18;9.12;;;;;;;27.60;50.11;99257.05;394020;103;1986043;-74
2021/07/15 04:24:43;;;;;;;16.25;9.44;;;;;;;27.50;50.09;99262.93;375457;105;1961921;-72
2021/07/15 04:26:10;;;;;;;12.44;8.99;;;;;;;27.52;49.96;99259.81;325489;107;2850920;-72
2021/07/15 04:27:27;;;;;;;15.96;10.02;;;;;;;27.65;49.89;99261.58;393232;104;1985886;-72
2021/07/15 04:28:34;;;;;;;13.49;9.53;;;;;;;27.55;49.83;99257.21;376190;106;1962069;-73
2021/07/15 04:29:48;;;;;;;15.33;9.68;;;;;;;27.69;49.87;99253.43;392657;104;1986926;-73
2021/07/15 04:30:59;;;;;;;12.98;8.97;;;;;;;27.60;49.83;99264.52;319530;107;2568975;-72
2021/07/15 04:32:22;;;;;;;15.80;10.01;;;;;;;27.73;49.74;99252.45;389484;103;1986010;-73
2021/07/15 04:33:35;;;;;;;12.99;9.99;;;;;;;27.75;50.01;99249.33;390496;104;2073877;-73
2021/07/15 04:35:00;;;;;;;14.53;9.53;;;;;;;27.64;49.99;99246.09;371655;107;1962070;-73
2021/07/15 04:36:07;;;;;;;14.59;9.45;;;;;;;27.68;49.64;99255.40;370496;107;1962018;-74
2021/07/15 04:37:21;;;;;;;11.86;8.88;;;;;;;27.79;49.66;99253.08;394284;104;1985927;-72
2021/07/15 04:38:28;;;;;;;11.02;9.40;;;;;;;27.67;49.59;99259.30;377009;106;1961937;-72
2021/07/15 04:39:35;;;;;;;13.41;9.52;;;;;;;27.69;49.34;99254.23;367752;106;2948043;-73
2021/07/15 04:40:49;;;;;;;13.66;8.93;;;;;;;27.82;49.43;99249.67;385473;106;1986325;-72
2021/07/15 04:41:58;;;;;;;13.81;8.81;;;;;;;27.70;49.56;99260.59;320880;109;2848064;-72
2021/07/15 04:43:11;;;;;;;13.58;8.42;;;;;;;27.81;49.75;99259.97;349485;103;2247000;-74
2021/07/15 04:44:18;;;;;;;18.57;9.33;;;;;;;27.73;49.37;99246.90;376378;106;1961881;-74
2021/07/15 04:45:26;;;;;;;14.46;8.82;;;;;;;27.76;49.36;99245.39;370509;107;1962040;-73
2021/07/15 04:46:34;;;;;;;16.58;9.19;;;;;;;27.79;49.35;99250.30;333293;107;2128035;-73
2021/07/15 04:47:47;;;;;;;14.14;8.90;;;;;;;27.94;49.19;99244.22;393426;104;1986044;-73
2021/07/15 04:48:54;;;;;;;14.54;8.32;;;;;;;27.87;48.86;99248.69;311547;106;2550035;-73
2021/07/15 04:50:13;;;;;;;15.25;9.01;;;;;;;28.01;49.00;99238.17;391128;104;1966060;-72
2021/07/15 04:51:26;;;;;;;11.81;8.66;;;;;;;28.04;48.82;99240.28;385494;106;1985971;-71
2021/07/15 04:52:34;;;;;;;13.49;8.74;;;;;;;27.95;48.67;99242.28;366880;109;1962004;-73
2021/07/15 04:53:47;;;;;;;14.31;9.22;;;;;;;28.09;48.67;99237.32;393939;104;1986091;-73
2021/07/15 04:54:54;;;;;;;11.61;9.09;;;;;;;27.94;48.84;99237.86;373495;107;1961842;-73
2021/07/15 04:56:08;;;;;;;12.55;8.57;;;;;;;28.13;48.68;99240.23;375666;108;1994930;-73
2021/07/15 04:57:14;;;;;;;11.78;8.83;;;;;;;28.05;48.71;99244.67;359858;109;1962442;-73
2021/07/15 04:58:40;;;;;;;14.97;8.76;;;;;;;28.08;48.53;99248.75;320491;112;2891968;-72
2021/07/15 04:59:46;;;;;;;15.46;9.43;;;;;;;28.08;48.36;99238.48;356582;112;1962077;-74
2021/07/15 05:00:54;;;;;;;15.12;9.36;;;;;;;28.10;48.37;99238.94;299643;112;2594083;-73
2021/07/15 05:02:00;;;;;;;14.49;9.34;;;;;;;28.11;48.56;99243.36;348160;114;1961892;-72
2021/07/15 05:03:31;;;;;;;13.22;9.59;;;;;;;28.26;48.52;99237.25;394322;104;2081060;-72
2021/07/15 05:04:37;;;;;;;13.45;8.71;;;;;;;28.19;48.50;99236.95;379746;105;1962011;-72
2021/07/15 05:05:42;;;;;;;16.59;9.39;;;;;;;28.22;48.13;99244.61;375309;105;1962866;-73
2021/07/15 05:06:48;;;;;;;12.63;9.41;;;;;;;28.25;47.95;99243.94;375294;105;1962034;-73
2021/07/15 05:08:02;;;;;;;12.74;9.76;;;;;;;28.38;48.05;99241.27;398741;101;2072050;-74
2021/07/15 05:09:07;;;;;;;12.01;8.86;;;;;;;28.27;48.11;99238.87;372488;105;2902004;-74
2021/07/15 05:10:19;;;;;;;14.02;8.63;;;;;;;28.40;48.17;99236.20;394857;104;1986017;-74
2021/07/15 05:11:26;;;;;;;12.62;8.76;;;;;;;28.31;48.22;99240.97;374903;105;1961975;-74
2021/07/15 05:12:32;;;;;;;14.02;9.46;;;;;;;28.33;48.17;99233.94;375268;105;1961995;-72
2021/07/15 05:13:45;;;;;;;13.07;8.46;;;;;;;28.49;48.17;99236.98;350619;104;2818954;-73
2021/07/15 05:14:52;;;;;;;15.09;8.72;;;;;;;28.42;47.99;99242.22;338499;105;2168023;-73
2021/07/15 05:15:58;;;;;;;11.16;8.73;;;;;;;28.45;47.73;99236.05;378681;105;1961998;-74
2021/07/15 05:17:03;;;;;;;12.47;9.03;;;;;;;28.47;47.83;99250.39;378796;105;1960707;-73
2021/07/15 05:18:09;;;;;;;14.43;9.35;;;;;;;28.48;47.69;99244.52;379702;105;1961911;-73
2021/07/15 05:19:14;;;;;;;13.13;9.16;;;;;;;28.51;47.85;99245.80;380738;105;1961796;-73
2021/07/15 05:20:26;;;;;;;14.04;10.53;;;;;;;28.62;47.94;99249.01;398544;101;2071990;-72
2021/07/15 05:21:31;;;;;;;13.11;9.08;;;;;;;28.53;48.11;99248.23;383264;103;1970049;-72
2021/07/15 05:22:44;;;;;;;14.24;9.71;;;;;;;28.64;48.28;99246.72;384046;104;2843900;-72
2021/07/15 05:23:49;;;;;;;13.84;9.39;;;;;;;28.56;48.13;99261.48;375027;107;1968886;-72
2021/07/15 05:25:13;;;;;;;13.36;8.86;;;;;;;28.59;47.88;99253.27;371006;105;1961681;-73
2021/07/15 05:26:25;;;;;;;15.65;9.12;;;;;;;28.73;48.01;99244.67;399120;101;2070953;-72
2021/07/15 05:27:32;;;;;;;13.38;8.68;;;;;;;28.67;48.26;99254.37;384164;103;1961977;-73
2021/07/15 05:28:45;;;;;;;15.38;9.15;;;;;;;28.36;48.13;99166.59;392297;104;1986018;-73
2021/07/15 05:29:50;;;;;;;14.39;8.77;;;;;;;28.76;47.82;99254.30;374200;107;1962036;-72
2021/07/15 05:31:03;;;;;;;14.91;9.49;;;;;;;28.92;47.65;99238.65;382481;106;2070944;-72
2021/07/15 05:32:09;;;;;;;12.10;8.41;;;;;;;28.85;47.45;99252.30;328389;107;2881956;-72
2021/07/15 05:33:43;;;;;;;13.13;9.01;;;;;;;28.83;47.54;99247.06;369333;107;1962018;-72